Time;durP1;ratioP1;P1;durP2;ratioP2;P2;SDS_P1;SDS_P2;PMS_P1;PMS_P2;Temp;Humidity;BMP_temperature;BMP_pressure;BME280_temperature;BME280_humidity;BME280_pressure;Samples;Min_cycle;Max_cycle;Signal;HPM_P1;HPM_P2
2023/10/07 00:00:24;;;;;;;5.97;4.70;;;;;;;;;;5072074;28;20235;-72
2023/10/07 00:02:51;;;;;;;7.33;4.97;;;;;;;;;;5072179;28;20212;-73
2023/10/07 00:05:25;;;;;;;8.73;5.27;;;;;;;;;;5072184;28;20227;-72
2023/10/07 00:08:00;;;;;;;8.70;4.70;;;;;;;;;;5070858;28;20210;-72
2023/10/07 00:10:28;;;;;;;5.23;4.23;;;;;;;;;;5071765;28;20199;-73
2023/10/07 00:12:57;;;;;;;7.77;5.10;;;;;;;;;;5071292;28;20673;-72
2023/10/07 00:15:28;;;;;;;8.20;5.03;;;;;;;;;;5071624;28;20205;-73
2023/10/07 00:18:00;;;;;;;6.67;4.20;;;;;;;;;;5071611;28;20286;-72
2023/10/07 00:20:28;;;;;;;6.30;4.33;;;;;;;;;;5072164;28;20204;-73
2023/10/07 00:23:00;;;;;;;6.17;4.57;;;;;;;;;;5071073;28;20334;-71
2023/10/07 00:25:30;;;;;;;7.30;4.47;;;;;;;;;;5071577;28;20201;-72
2023/10/07 00:27:58;;;;;;;5.97;4.27;;;;;;;;;;5071590;28;20560;-72
2023/10/07 00:30:27;;;;;;;6.73;4.40;;;;;;;;;;5071663;28;20238;-72
2023/10/07 00:32:55;;;;;;;9.27;4.37;;;;;;;;;;5071052;28;20292;-71
2023/10/07 00:35:23;;;;;;;7.73;4.53;;;;;;;;;;5071285;28;20215;-72
2023/10/07 00:37:50;;;;;;;8.17;4.70;;;;;;;;;;5070663;28;20577;-71
2023/10/07 00:40:31;;;;;;;6.40;4.33;;;;;;;;;;5071671;28;20208;-72
2023/10/07 00:42:58;;;;;;;8.03;4.63;;;;;;;;;;5070847;28;20212;-72
2023/10/07 00:45:26;;;;;;;10.67;5.23;;;;;;;;;;5070941;28;20592;-72
2023/10/07 00:47:54;;;;;;;9.30;4.47;;;;;;;;;;5071256;28;20250;-72
2023/10/07 00:50:22;;;;;;;6.13;4.60;;;;;;;;;;5071187;28;20610;-71
2023/10/07 00:52:57;;;;;;;5.47;4.50;;;;;;;;;;5071476;28;20207;-71
2023/10/07 00:55:32;;;;;;;7.10;4.87;;;;;;;;;;5070693;28;20663;-72
2023/10/07 00:58:08;;;;;;;8.90;4.57;;;;;;;;;;5070812;28;20251;-71
2023/10/07 01:00:46;;;;;;;6.43;5.17;;;;;;;;;;5045598;28;20204;-71
2023/10/07 01:03:17;;;;;;;8.27;5.13;;;;;;;;;;5071090;28;20259;-72
2023/10/07 01:05:53;;;;;;;6.40;4.43;;;;;;;;;;5071055;28;20206;-71
2023/10/07 01:08:26;;;;;;;7.07;4.80;;;;;;;;;;5070637;28;20219;-72
2023/10/07 01:11:06;;;;;;;5.73;4.17;;;;;;;;;;5070737;28;20201;-72
2023/10/07 01:13:35;;;;;;;7.97;4.73;;;;;;;;;;5070688;28;20716;-72
2023/10/07 01:16:06;;;;;;;8.70;4.83;;;;;;;;;;5070411;28;20584;-72
2023/10/07 01:18:38;;;;;;;8.27;5.13;;;;;;;;;;5070935;28;20203;-72
2023/10/07 01:21:08;;;;;;;6.83;4.03;;;;;;;;;;5069923;28;20202;-72
2023/10/07 01:23:36;;;;;;;7.50;5.07;;;;;;;;;;5070624;28;20201;-71
2023/10/07 01:26:14;;;;;;;5.37;4.20;;;;;;;;;;5070090;28;20202;-71
2023/10/07 01:28:41;;;;;;;5.60;4.30;;;;;;;;;;5070811;28;20243;-71
2023/10/07 01:31:12;;;;;;;6.60;4.50;;;;;;;;;;5070267;28;20229;-71
2023/10/07 01:33:41;;;;;;;5.83;4.27;;;;;;;;;;5070778;28;20201;-71
2023/10/07 01:36:11;;;;;;;6.23;4.13;;;;;;;;;;5069942;28;20246;-72
2023/10/07 01:38:44;;;;;;;6.13;4.43;;;;;;;;;;5071409;28;20299;-72
2023/10/07 01:41:18;;;;;;;9.00;4.47;;;;;;;;;;5045506;28;20213;-72
2023/10/07 01:43:56;;;;;;;6.40;4.30;;;;;;;;;;5069715;28;20568;-71
2023/10/07 01:46:27;;;;;;;8.43;4.70;;;;;;;;;;5070134;28;20208;-73
2023/10/07 01:48:57;;;;;;;6.10;4.40;;;;;;;;;;5069713;28;20720;-73
2023/10/07 01:51:26;;;;;;;6.10;4.43;;;;;;;;;;5070379;28;20204;-72
2023/10/07 01:53:56;;;;;;;6.80;4.43;;;;;;;;;;5069788;28;20236;-73
2023/10/07 01:56:26;;;;;;;6.57;4.87;;;;;;;;;;5070342;28;20623;-71
2023/10/07 01:58:54;;;;;;;12.37;4.07;;;;;;;;;;5064447;28;20198;-71
2023/10/07 02:01:22;;;;;;;6.73;5.23;;;;;;;;;;5063495;28;20212;-72
2023/10/07 02:03:50;;;;;;;5.73;4.07;;;;;;;;;;5044151;28;20197;-72
2023/10/07 02:06:18;;;;;;;6.53;3.87;;;;;;;;;;5069735;28;20201;-72
2023/10/07 02:08:45;;;;;;;6.87;4.77;;;;;;;;;;5070514;28;20237;-71
2023/10/07 02:11:17;;;;;;;4.93;3.90;;;;;;;;;;5069551;28;20197;-72
2023/10/07 02:13:45;;;;;;;5.40;3.60;;;;;;;;;;5069992;28;20197;-71
2023/10/07 02:16:12;;;;;;;6.40;4.57;;;;;;;;;;5069496;28;20699;-71
2023/10/07 02:18:44;;;;;;;5.20;4.23;;;;;;;;;;5070007;28;20204;-73
2023/10/07 02:21:11;;;;;;;5.03;4.13;;;;;;;;;;5055394;28;20209;-71
2023/10/07 02:23:40;;;;;;;6.87;4.73;;;;;;;;;;5067575;28;20197;-71
2023/10/07 02:26:14;;;;;;;5.97;4.50;;;;;;;;;;5066307;28;20755;-71
2023/10/07 02:28:43;;;;;;;7.43;4.43;;;;;;;;;;5069551;28;20201;-71
2023/10/07 02:31:15;;;;;;;9.97;4.97;;;;;;;;;;5062764;28;20292;-71
2023/10/07 02:33:45;;;;;;;4.90;4.20;;;;;;;;;;5065410;28;20198;-71
2023/10/07 02:36:27;;;;;;;7.33;5.23;;;;;;;;;;5068291;28;20258;-70
2023/10/07 02:38:55;;;;;;;12.70;5.90;;;;;;;;;;5073328;28;20204;-71
2023/10/07 02:41:24;;;;;;;8.70;4.57;;;;;;;;;;5073150;28;20193;-70
2023/10/07 02:43:52;;;;;;;5.40;4.23;;;;;;;;;;5073378;28;20207;-71
2023/10/07 02:46:32;;;;;;;7.17;4.50;;;;;;;;;;5072455;28;20674;-70
2023/10/07 02:49:09;;;;;;;6.37;4.20;;;;;;;;;;5073641;28;20221;-70
2023/10/07 02:51:39;;;;;;;5.50;3.90;;;;;;;;;;5072882;28;20671;-70
2023/10/07 02:54:15;;;;;;;6.07;4.70;;;;;;;;;;5072703;28;20201;-70
2023/10/07 02:56:54;;;;;;;5.83;4.20;;;;;;;;;;5072554;28;20260;-70
2023/10/07 02:59:29;;;;;;;10.03;5.30;;;;;;;;;;5067777;28;20271;-70
2023/10/07 03:02:21;;;;;;;8.47;4.60;;;;;;;;;;5065511;28;20211;-70
2023/10/07 03:05:06;;;;;;;5.20;4.23;;;;;;;;;;5073141;28;20774;-71
2023/10/07 03:07:34;;;;;;;8.03;4.60;;;;;;;;;;5071033;28;20227;-71
2023/10/07 03:10:16;;;;;;;4.60;3.63;;;;;;;;;;5072867;28;20270;-71
2023/10/07 03:12:47;;;;;;;9.97;5.20;;;;;;;;;;5049783;28;20193;-71
2023/10/07 03:15:30;;;;;;;7.03;4.90;;;;;;;;;;5073202;28;20513;-71
2023/10/07 03:17:57;;;;;;;5.17;4.20;;;;;;;;;;5072189;28;20597;-71
2023/10/07 03:20:31;;;;;;;4.87;4.00;;;;;;;;;;5065855;28;20205;-71
2023/10/07 03:23:15;;;;;;;6.57;4.10;;;;;;;;;;5069663;28;20200;-72
2023/10/07 03:26:05;;;;;;;8.33;4.53;;;;;;;;;;5072378;28;20250;-72
2023/10/07 03:28:35;;;;;;;4.80;4.03;;;;;;;;;;5072431;28;20286;-71
2023/10/07 03:31:08;;;;;;;9.90;4.60;;;;;;;;;;5072771;28;20197;-71
2023/10/07 03:33:44;;;;;;;8.40;4.90;;;;;;;;;;5053364;28;20622;-71
2023/10/07 03:36:30;;;;;;;5.67;3.87;;;;;;;;;;5046535;28;20235;-71
2023/10/07 03:39:11;;;;;;;6.17;4.63;;;;;;;;;;5072658;28;20193;-71
2023/10/07 03:41:41;;;;;;;5.53;4.60;;;;;;;;;;5071537;28;20215;-71
2023/10/07 03:44:08;;;;;;;5.73;4.33;;;;;;;;;;5071654;28;20193;-71
2023/10/07 03:46:38;;;;;;;6.50;4.13;;;;;;;;;;5071530;28;20204;-71
2023/10/07 03:49:06;;;;;;;4.43;4.03;;;;;;;;;;5071805;28;20278;-71
2023/10/07 03:51:35;;;;;;;4.17;3.87;;;;;;;;;;5071783;28;20197;-72
2023/10/07 03:54:09;;;;;;;8.33;4.87;;;;;;;;;;5072020;28;20199;-71
2023/10/07 03:56:36;;;;;;;5.93;3.97;;;;;;;;;;5068881;28;20283;-72
2023/10/07 03:59:05;;;;;;;6.77;4.67;;;;;;;;;;5052361;28;20205;-71
2023/10/07 04:01:32;;;;;;;6.67;4.40;;;;;;;;;;5053846;28;20279;-71
2023/10/07 04:04:00;;;;;;;6.43;4.47;;;;;;;;;;5052433;28;20205;-72
2023/10/07 04:06:31;;;;;;;5.50;4.27;;;;;;;;;;5055346;28;20209;-71
2023/10/07 04:09:06;;;;;;;9.30;4.23;;;;;;;;;;5069509;28;20225;-72
2023/10/07 04:11:36;;;;;;;6.80;4.40;;;;;;;;;;5067500;28;20195;-71
2023/10/07 04:14:08;;;;;;;8.03;5.03;;;;;;;;;;5069746;28;20212;-72
2023/10/07 04:16:36;;;;;;;6.20;4.30;;;;;;;;;;5067595;28;20667;-71
2023/10/07 04:19:30;;;;;;;7.97;5.57;;;;;;;;;;5070121;28;20626;-71
2023/10/07 04:21:58;;;;;;;6.60;4.03;;;;;;;;;;5071230;28;20205;-73
2023/10/07 04:24:28;;;;;;;5.50;3.83;;;;;;;;;;5071322;28;20224;-71
2023/10/07 04:27:02;;;;;;;6.10;4.17;;;;;;;;;;5070483;28;20200;-71
2023/10/07 04:29:29;;;;;;;8.13;4.17;;;;;;;;;;5071383;28;20297;-71
2023/10/07 04:31:57;;;;;;;5.40;4.27;;;;;;;;;;5060378;28;20209;-71
2023/10/07 04:34:33;;;;;;;7.90;5.50;;;;;;;;;;5069270;28;20254;-71
2023/10/07 04:37:14;;;;;;;8.63;5.63;;;;;;;;;;5071172;28;20200;-71
2023/10/07 04:40:27;;;;;;;7.33;3.80;;;;;;;;;;5056597;28;20233;-73
2023/10/07 04:42:36;;;;;;;4.87;3.77;;;;;;;;;;5051376;28;20201;-71
2023/10/07 04:45:22;;;;;;;6.10;4.03;;;;;;;;;;5051372;28;20638;-72
2023/10/07 04:47:57;;;;;;;4.43;3.87;;;;;;;;;;5050881;28;20198;-72
2023/10/07 04:50:37;;;;;;;5.43;4.60;;;;;;;;;;5058508;28;20235;-72
2023/10/07 04:53:05;;;;;;;7.07;4.33;;;;;;;;;;5056232;28;20194;-72
2023/10/07 04:55:32;;;;;;;35.17;18.93;;;;;;;;;;5053663;28;20293;-72
2023/10/07 04:57:58;;;;;;;14.23;6.17;;;;;;;;;;5056988;28;20230;-73
2023/10/07 05:00:35;;;;;;;7.07;4.80;;;;;;;;;;5058799;28;20288;-72
2023/10/07 05:03:02;;;;;;;9.93;5.30;;;;;;;;;;5051435;28;20208;-72
2023/10/07 05:05:33;;;;;;;6.97;4.50;;;;;;;;;;5053783;28;20587;-72
2023/10/07 05:08:08;;;;;;;7.17;4.17;;;;;;;;;;5057938;28;20209;-72
2023/10/07 05:10:38;;;;;;;9.60;5.13;;;;;;;;;;5054716;28;20271;-72
2023/10/07 05:13:07;;;;;;;10.57;4.53;;;;;;;;;;5055999;28;20201;-73
2023/10/07 05:15:33;;;;;;;6.80;4.07;;;;;;;;;;5055521;28;20213;-73
2023/10/07 05:18:03;;;;;;;5.77;4.60;;;;;;;;;;5049079;28;20221;-72
2023/10/07 05:20:32;;;;;;;6.87;4.23;;;;;;;;;;5064896;28;20201;-72
2023/10/07 05:23:04;;;;;;;8.43;3.70;;;;;;;;;;5050745;28;20198;-74
2023/10/07 05:25:35;;;;;;;4.73;3.80;;;;;;;;;;5051148;28;20197;-74
2023/10/07 05:28:03;;;;;;;6.27;4.40;;;;;;;;;;5050285;28;20206;-73
2023/10/07 05:30:32;;;;;;;5.00;4.50;;;;;;;;;;5064075;28;20236;-73
2023/10/07 05:33:00;;;;;;;7.90;4.70;;;;;;;;;;5063317;28;20643;-72
2023/10/07 05:35:27;;;;;;;8.57;3.90;;;;;;;;;;5050411;28;20297;-73
2023/10/07 05:37:59;;;;;;;10.87;5.10;;;;;;;;;;5050289;28;20218;-73
2023/10/07 05:40:25;;;;;;;8.03;4.30;;;;;;;;;;5063092;28;20219;-73
2023/10/07 05:42:52;;;;;;;10.07;4.60;;;;;;;;;;5048901;28;20208;-73
2023/10/07 05:45:19;;;;;;;11.20;5.13;;;;;;;;;;5048048;28;20212;-73
2023/10/07 05:47:46;;;;;;;7.50;5.07;;;;;;;;;;5049655;28;20212;-73
2023/10/07 05:50:13;;;;;;;11.30;4.23;;;;;;;;;;5053194;28;20217;-73
2023/10/07 05:52:40;;;;;;;6.87;4.43;;;;;;;;;;5070033;28;20205;-72
2023/10/07 05:55:10;;;;;;;9.13;5.23;;;;;;;;;;5069617;28;20683;-73
2023/10/07 05:57:37;;;;;;;9.60;4.83;;;;;;;;;;5070034;28;20719;-72
2023/10/07 06:00:09;;;;;;;9.70;5.17;;;;;;;;;;5070495;28;20197;-72
2023/10/07 06:02:37;;;;;;;6.53;3.97;;;;;;;;;;5070683;28;20234;-73
2023/10/07 06:05:06;;;;;;;4.63;4.13;;;;;;;;;;5070228;28;20288;-73
2023/10/07 06:07:34;;;;;;;10.80;5.07;;;;;;;;;;5073694;28;20209;-74
2023/10/07 06:10:02;;;;;;;9.47;4.43;;;;;;;;;;5073909;28;20265;-73
2023/10/07 06:12:30;;;;;;;9.77;4.70;;;;;;;;;;5074137;28;20201;-73
2023/10/07 06:14:57;;;;;;;6.47;4.57;;;;;;;;;;5047847;28;20201;-73
2023/10/07 06:17:26;;;;;;;5.97;4.53;;;;;;;;;;5073552;28;20580;-74
2023/10/07 06:19:53;;;;;;;11.23;5.17;;;;;;;;;;5074232;28;20229;-73
2023/10/07 06:22:22;;;;;;;5.87;4.67;;;;;;;;;;5074004;28;20212;-73
2023/10/07 06:24:52;;;;;;;8.70;5.37;;;;;;;;;;5073317;28;20205;-73
2023/10/07 06:27:21;;;;;;;9.07;5.50;;;;;;;;;;5073075;28;20230;-74
2023/10/07 06:29:50;;;;;;;159.80;89.07;;;;;;;;;;5048959;28;20615;-73
2023/10/07 06:32:41;;;;;;;107.40;56.93;;;;;;;;;;5071893;28;20742;-73
2023/10/07 06:35:13;;;;;;;55.57;34.03;;;;;;;;;;5066880;28;20597;-74
2023/10/07 06:37:40;;;;;;;35.50;21.20;;;;;;;;;;5054938;28;20703;-74
2023/10/07 06:40:23;;;;;;;34.27;20.33;;;;;;;;;;5056764;28;20203;-74
2023/10/07 06:42:50;;;;;;;27.43;16.50;;;;;;;;;;5055355;28;20208;-73
2023/10/07 06:45:20;;;;;;;28.17;18.23;;;;;;;;;;5072061;28;20662;-73
2023/10/07 06:47:48;;;;;;;19.80;11.73;;;;;;;;;;5071877;28;20218;-74
2023/10/07 06:50:19;;;;;;;20.43;9.77;;;;;;;;;;5060017;28;20776;-74
2023/10/07 06:52:49;;;;;;;9.70;5.20;;;;;;;;;;5054134;28;20205;-74
2023/10/07 06:55:16;;;;;;;8.77;4.97;;;;;;;;;;5061743;28;20208;-71
2023/10/07 06:57:46;;;;;;;14.93;5.50;;;;;;;;;;5065771;28;20224;-71
2023/10/07 07:00:22;;;;;;;9.47;4.83;;;;;;;;;;5063310;28;20262;-72
2023/10/07 07:02:59;;;;;;;11.80;4.70;;;;;;;;;;5056377;28;20282;-71
2023/10/07 07:05:27;;;;;;;5.67;4.00;;;;;;;;;;5072961;28;20204;-71
2023/10/07 07:07:54;;;;;;;6.67;4.50;;;;;;;;;;5071695;28;20208;-71
2023/10/07 07:10:27;;;;;;;6.27;4.53;;;;;;;;;;5073117;28;20205;-71
2023/10/07 07:13:04;;;;;;;9.20;4.33;;;;;;;;;;5047474;28;20197;-72
2023/10/07 07:15:36;;;;;;;7.60;4.00;;;;;;;;;;5072646;28;20200;-72
2023/10/07 07:18:14;;;;;;;5.57;3.83;;;;;;;;;;5072787;28;20662;-72
2023/10/07 07:20:49;;;;;;;7.37;3.83;;;;;;;;;;5072697;28;20201;-71
2023/10/07 07:23:17;;;;;;;9.53;4.23;;;;;;;;;;5046887;28;20196;-72
2023/10/07 07:25:44;;;;;;;9.40;3.97;;;;;;;;;;5067708;28;20296;-71
2023/10/07 07:28:11;;;;;;;6.77;4.07;;;;;;;;;;5055695;28;20677;-72
2023/10/07 07:30:37;;;;;;;8.30;4.40;;;;;;;;;;5053234;28;20209;-73
2023/10/07 07:33:11;;;;;;;5.90;3.50;;;;;;;;;;5052865;28;20775;-72
2023/10/07 07:35:39;;;;;;;5.13;3.93;;;;;;;;;;5067261;28;20240;-72
2023/10/07 07:40:49;;;;;;;4.67;3.67;;;;;;;;;;5054216;28;20225;-72
2023/10/07 07:43:19;;;;;;;7.57;4.83;;;;;;;;;;5071256;28;20206;-72
2023/10/07 07:45:46;;;;;;;6.67;4.47;;;;;;;;;;5065231;28;20252;-73
2023/10/07 07:48:16;;;;;;;10.83;4.60;;;;;;;;;;5053387;28;20213;-72
2023/10/07 07:50:43;;;;;;;10.20;3.77;;;;;;;;;;5049397;28;20216;-72
2023/10/07 07:53:12;;;;;;;5.90;4.20;;;;;;;;;;5062232;28;20201;-73
2023/10/07 07:55:43;;;;;;;6.07;4.00;;;;;;;;;;5057445;28;20201;-72
2023/10/07 07:58:10;;;;;;;6.97;4.00;;;;;;;;;;5052268;28;20231;-72
2023/10/07 08:00:44;;;;;;;6.40;4.00;;;;;;;;;;5058617;28;20202;-71
2023/10/07 08:03:16;;;;;;;9.27;4.50;;;;;;;;;;5072297;28;20201;-71
2023/10/07 08:05:47;;;;;;;7.80;4.70;;;;;;;;;;5071711;28;20201;-71
2023/10/07 08:08:24;;;;;;;6.53;4.43;;;;;;;;;;5072233;28;20235;-72
2023/10/07 08:10:54;;;;;;;9.83;4.53;;;;;;;;;;5071298;28;20234;-72
2023/10/07 08:13:23;;;;;;;8.30;4.53;;;;;;;;;;5059001;28;20209;-72
2023/10/07 08:15:51;;;;;;;9.73;5.17;;;;;;;;;;5070458;28;20232;-71
2023/10/07 08:18:22;;;;;;;9.87;4.50;;;;;;;;;;5064570;28;20606;-72
2023/10/07 08:20:56;;;;;;;8.93;4.27;;;;;;;;;;5071552;28;20212;-72
2023/10/07 08:23:28;;;;;;;7.20;4.93;;;;;;;;;;5047031;28;20208;-72
2023/10/07 08:26:08;;;;;;;8.73;4.80;;;;;;;;;;5069630;28;20205;-72
2023/10/07 08:28:42;;;;;;;12.80;4.60;;;;;;;;;;5050128;28;20205;-72
2023/10/07 08:31:14;;;;;;;9.57;4.60;;;;;;;;;;5069362;28;20205;-72
2023/10/07 08:33:47;;;;;;;6.30;4.30;;;;;;;;;;5071282;28;20233;-72
2023/10/07 08:36:17;;;;;;;9.07;4.60;;;;;;;;;;5070426;28;20274;-72
2023/10/07 08:38:45;;;;;;;7.37;4.80;;;;;;;;;;5070222;28;20703;-72
2023/10/07 08:41:16;;;;;;;10.97;4.40;;;;;;;;;;5071531;28;20196;-72
2023/10/07 08:44:00;;;;;;;6.80;5.23;;;;;;;;;;5057085;28;20578;-72
2023/10/07 08:46:28;;;;;;;8.00;3.97;;;;;;;;;;5051546;28;20591;-72
2023/10/07 08:48:57;;;;;;;18.87;6.90;;;;;;;;;;5052614;28;20233;-72
2023/10/07 08:51:25;;;;;;;7.07;4.40;;;;;;;;;;5062967;28;20228;-72
2023/10/07 08:53:57;;;;;;;15.13;5.17;;;;;;;;;;5070442;28;20193;-71
2023/10/07 08:56:25;;;;;;;7.53;4.53;;;;;;;;;;5071158;28;20208;-73
2023/10/07 08:58:52;;;;;;;10.57;5.20;;;;;;;;;;5071511;28;20263;-73
2023/10/07 09:01:19;;;;;;;10.70;5.03;;;;;;;;;;5070036;28;20212;-73
2023/10/07 09:03:49;;;;;;;8.53;4.57;;;;;;;;;;5050419;28;20205;-73
2023/10/07 09:06:16;;;;;;;8.03;5.13;;;;;;;;;;5070414;28;20198;-73
2023/10/07 09:08:45;;;;;;;6.03;4.43;;;;;;;;;;5070740;28;20300;-73
2023/10/07 09:11:14;;;;;;;6.57;5.00;;;;;;;;;;5070276;28;20267;-73
2023/10/07 09:13:40;;;;;;;5.97;4.23;;;;;;;;;;5070185;28;20284;-73
2023/10/07 09:16:10;;;;;;;8.70;4.77;;;;;;;;;;5069308;28;20196;-74
2023/10/07 09:18:40;;;;;;;5.17;3.80;;;;;;;;;;5070347;28;20228;-73
2023/10/07 09:21:11;;;;;;;5.50;4.93;;;;;;;;;;5069171;28;20200;-74
2023/10/07 09:23:43;;;;;;;5.93;4.23;;;;;;;;;;5070185;28;20251;-73
2023/10/07 09:26:21;;;;;;;7.83;5.40;;;;;;;;;;5068382;28;20196;-74
2023/10/07 09:28:58;;;;;;;10.07;4.53;;;;;;;;;;5070516;28;20291;-73
2023/10/07 09:31:26;;;;;;;5.87;4.63;;;;;;;;;;5071109;28;20205;-73
2023/10/07 09:33:55;;;;;;;5.53;4.00;;;;;;;;;;5070662;28;20204;-73
2023/10/07 09:39:31;;;;;;;5.93;4.20;;;;;;;;;;5070255;28;20355;-73
2023/10/07 09:42:03;;;;;;;5.57;4.53;;;;;;;;;;5070363;28;20205;-72
2023/10/07 09:44:31;;;;;;;7.93;4.50;;;;;;;;;;5070525;28;20201;-72
2023/10/07 09:47:03;;;;;;;5.87;4.70;;;;;;;;;;5070103;28;20201;-72
2023/10/07 09:49:32;;;;;;;5.17;4.53;;;;;;;;;;5055753;28;20234;-73
2023/10/07 09:52:16;;;;;;;6.43;4.63;;;;;;;;;;5054567;28;20205;-73
2023/10/07 09:55:18;;;;;;;11.03;5.33;;;;;;;;;;5045836;28;20734;-73
2023/10/07 09:57:55;;;;;;;7.10;5.10;;;;;;;;;;5046091;28;20207;-73
2023/10/07 10:00:40;;;;;;;6.67;4.57;;;;;;;;;;5069711;28;20312;-73
2023/10/07 10:03:48;;;;;;;4.67;4.00;;;;;;;;;;5070465;28;20197;-72
2023/10/07 10:06:25;;;;;;;8.13;4.20;;;;;;;;;;5041778;28;20219;-73
2023/10/07 10:08:58;;;;;;;7.07;4.40;;;;;;;;;;5070175;28;20200;-72
2023/10/07 10:11:44;;;;;;;6.83;4.60;;;;;;;;;;5069606;28;20201;-73
2023/10/07 10:14:19;;;;;;;9.17;5.20;;;;;;;;;;5070365;28;20207;-73
2023/10/07 10:16:48;;;;;;;7.30;4.30;;;;;;;;;;5069875;28;20581;-73
2023/10/07 10:19:28;;;;;;;6.90;3.97;;;;;;;;;;5069995;28;20798;-73
2023/10/07 10:21:56;;;;;;;9.67;5.20;;;;;;;;;;5070291;28;20201;-73
2023/10/07 10:24:32;;;;;;;9.50;4.90;;;;;;;;;;5069650;28;20688;-73
2023/10/07 10:27:07;;;;;;;8.43;4.87;;;;;;;;;;5069693;28;20205;-73
2023/10/07 10:29:52;;;;;;;7.30;4.33;;;;;;;;;;5069507;28;20203;-72
2023/10/07 10:32:28;;;;;;;5.13;4.43;;;;;;;;;;5069670;28;20197;-73
2023/10/07 10:34:55;;;;;;;4.33;3.93;;;;;;;;;;5070044;28;20200;-73
2023/10/07 10:37:26;;;;;;;6.20;4.20;;;;;;;;;;5068812;28;20201;-73
2023/10/07 10:39:55;;;;;;;8.70;5.07;;;;;;;;;;5068606;28;20228;-73
2023/10/07 10:42:22;;;;;;;4.30;3.93;;;;;;;;;;5069408;28;20194;-73
2023/10/07 10:44:53;;;;;;;8.00;3.93;;;;;;;;;;5069874;28;20836;-72
2023/10/07 10:47:21;;;;;;;5.73;4.17;;;;;;;;;;5069358;28;20581;-72
2023/10/07 10:49:47;;;;;;;4.80;4.40;;;;;;;;;;5069484;28;20233;-72
2023/10/07 10:52:18;;;;;;;4.57;4.07;;;;;;;;;;5071157;28;20583;-72
2023/10/07 10:54:45;;;;;;;5.10;3.60;;;;;;;;;;5072901;28;20197;-73
2023/10/07 10:57:14;;;;;;;7.20;4.07;;;;;;;;;;5061386;28;20205;-73
2023/10/07 10:59:42;;;;;;;6.07;4.40;;;;;;;;;;5065272;28;20283;-72
2023/10/07 11:02:12;;;;;;;7.63;4.83;;;;;;;;;;5072774;28;20235;-72
2023/10/07 11:04:38;;;;;;;6.63;4.60;;;;;;;;;;5073169;28;20731;-73
2023/10/07 11:07:07;;;;;;;6.33;4.27;;;;;;;;;;5072814;28;20201;-72
2023/10/07 11:09:37;;;;;;;8.47;4.67;;;;;;;;;;5072541;28;20744;-74
2023/10/07 11:12:09;;;;;;;4.50;3.80;;;;;;;;;;5073313;28;20208;-73
2023/10/07 11:14:38;;;;;;;5.97;4.10;;;;;;;;;;5073000;28;20262;-73
2023/10/07 11:17:05;;;;;;;7.97;3.87;;;;;;;;;;5072386;28;20321;-73
2023/10/07 11:19:40;;;;;;;5.47;4.93;;;;;;;;;;5073061;28;20613;-72
2023/10/07 11:22:07;;;;;;;7.00;4.70;;;;;;;;;;5071521;28;20684;-73
2023/10/07 11:24:37;;;;;;;4.73;4.03;;;;;;;;;;5071982;28;20236;-73
2023/10/07 11:27:04;;;;;;;5.03;4.37;;;;;;;;;;5072596;28;20263;-72
2023/10/07 11:29:32;;;;;;;6.23;4.03;;;;;;;;;;5072019;28;20289;-73
2023/10/07 11:31:59;;;;;;;8.50;5.27;;;;;;;;;;5072625;28;20205;-73
2023/10/07 11:34:37;;;;;;;6.17;4.20;;;;;;;;;;5072034;28;20242;-73
2023/10/07 11:37:09;;;;;;;5.30;3.97;;;;;;;;;;5072283;28;20201;-73
2023/10/07 11:39:44;;;;;;;10.20;5.43;;;;;;;;;;5045869;28;20225;-72
2023/10/07 11:42:13;;;;;;;7.43;4.87;;;;;;;;;;5072532;28;20213;-72
2023/10/07 11:44:41;;;;;;;7.83;4.90;;;;;;;;;;5072660;28;20224;-73
2023/10/07 11:47:08;;;;;;;8.03;4.30;;;;;;;;;;5072103;28;20208;-75
2023/10/07 11:49:36;;;;;;;5.40;4.30;;;;;;;;;;5072694;28;20625;-73
2023/10/07 11:52:04;;;;;;;4.77;4.27;;;;;;;;;;5071935;28;20201;-73
2023/10/07 11:54:34;;;;;;;7.13;4.67;;;;;;;;;;5072598;28;20204;-73
2023/10/07 11:57:02;;;;;;;7.67;5.33;;;;;;;;;;5068457;28;20206;-73
2023/10/07 11:59:29;;;;;;;4.53;4.10;;;;;;;;;;5069594;28;20227;-73
2023/10/07 12:01:55;;;;;;;8.77;5.53;;;;;;;;;;5068842;28;20209;-73
2023/10/07 12:04:23;;;;;;;6.00;4.43;;;;;;;;;;5069608;28;20201;-73
2023/10/07 12:06:54;;;;;;;10.73;5.03;;;;;;;;;;5070515;28;20201;-73
2023/10/07 12:09:22;;;;;;;6.37;5.13;;;;;;;;;;5070960;28;20208;-73
2023/10/07 12:11:49;;;;;;;5.00;4.00;;;;;;;;;;5071228;28;20636;-74
2023/10/07 12:14:19;;;;;;;8.93;4.90;;;;;;;;;;5072094;28;20196;-73
2023/10/07 12:16:46;;;;;;;13.17;5.70;;;;;;;;;;5056079;28;20200;-73
2023/10/07 12:19:17;;;;;;;4.90;4.30;;;;;;;;;;5054379;28;20206;-74
2023/10/07 12:21:45;;;;;;;9.30;5.27;;;;;;;;;;5063934;28;20206;-73
2023/10/07 12:24:13;;;;;;;8.17;4.83;;;;;;;;;;5064768;28;20288;-73
2023/10/07 12:26:40;;;;;;;6.03;4.80;;;;;;;;;;5051903;28;20659;-73
2023/10/07 12:29:07;;;;;;;6.33;4.53;;;;;;;;;;5055881;28;20672;-73
2023/10/07 12:31:35;;;;;;;8.10;4.63;;;;;;;;;;5062377;28;20657;-73
2023/10/07 12:34:02;;;;;;;6.50;5.20;;;;;;;;;;5053834;28;20281;-73
2023/10/07 12:36:30;;;;;;;7.77;4.73;;;;;;;;;;5051789;28;20293;-73
2023/10/07 12:38:57;;;;;;;7.80;5.20;;;;;;;;;;5057408;28;20671;-73
2023/10/07 12:41:25;;;;;;;7.63;5.37;;;;;;;;;;5058492;28;20253;-72
2023/10/07 12:43:53;;;;;;;11.73;5.30;;;;;;;;;;5051532;28;20202;-73
2023/10/07 12:46:20;;;;;;;6.07;5.47;;;;;;;;;;5051795;28;20202;-72
2023/10/07 12:48:47;;;;;;;11.53;5.63;;;;;;;;;;5052174;28;20225;-72
2023/10/07 12:51:14;;;;;;;6.27;4.77;;;;;;;;;;5065760;28;20205;-73
2023/10/07 12:53:43;;;;;;;5.73;5.07;;;;;;;;;;5071610;28;20205;-73
2023/10/07 12:56:13;;;;;;;7.30;5.60;;;;;;;;;;5070521;28;20213;-73
2023/10/07 12:58:42;;;;;;;8.67;5.60;;;;;;;;;;5070822;28;20206;-73
2023/10/07 13:01:12;;;;;;;6.07;4.97;;;;;;;;;;5070690;28;20244;-73
2023/10/07 13:03:43;;;;;;;9.93;5.67;;;;;;;;;;5071397;28;20205;-73
2023/10/07 13:06:14;;;;;;;10.33;4.97;;;;;;;;;;5070311;28;20209;-74
2023/10/07 13:08:41;;;;;;;8.57;5.33;;;;;;;;;;5070463;28;20205;-73
2023/10/07 13:11:11;;;;;;;5.97;4.73;;;;;;;;;;5070274;28;20201;-73
2023/10/07 13:13:41;;;;;;;6.03;5.13;;;;;;;;;;5070531;28;20207;-73
2023/10/07 13:16:10;;;;;;;7.90;5.20;;;;;;;;;;5070447;28;20591;-73
2023/10/07 13:18:39;;;;;;;10.53;5.47;;;;;;;;;;5070727;28;20583;-73
2023/10/07 13:21:13;;;;;;;10.10;5.70;;;;;;;;;;5069967;28;20232;-73
2023/10/07 13:23:40;;;;;;;7.80;5.73;;;;;;;;;;5070904;28;20201;-73
2023/10/07 13:26:10;;;;;;;12.40;6.30;;;;;;;;;;5070180;28;20668;-73
2023/10/07 13:28:38;;;;;;;7.40;5.83;;;;;;;;;;5070699;28;20213;-74
2023/10/07 13:31:07;;;;;;;7.63;5.33;;;;;;;;;;5056956;28;20204;-73
2023/10/07 13:33:36;;;;;;;8.00;5.67;;;;;;;;;;5070833;28;20258;-73
2023/10/07 13:36:03;;;;;;;9.17;5.50;;;;;;;;;;5070858;28;20579;-73
2023/10/07 13:38:30;;;;;;;5.77;4.87;;;;;;;;;;5070719;28;20284;-73
2023/10/07 13:40:57;;;;;;;6.93;4.80;;;;;;;;;;5069911;28;20220;-73
2023/10/07 13:43:26;;;;;;;5.80;4.80;;;;;;;;;;5070488;28;20223;-74
2023/10/07 13:45:53;;;;;;;10.57;6.00;;;;;;;;;;5070223;28;20197;-74
2023/10/07 13:48:22;;;;;;;6.80;5.30;;;;;;;;;;5070045;28;20197;-74
2023/10/07 13:50:49;;;;;;;10.97;6.10;;;;;;;;;;5070334;28;20201;-73
2023/10/07 13:53:16;;;;;;;5.90;4.97;;;;;;;;;;5070134;28;20208;-73
2023/10/07 13:55:56;;;;;;;7.07;5.10;;;;;;;;;;5070374;28;20207;-73
2023/10/07 13:58:23;;;;;;;8.77;4.93;;;;;;;;;;5070071;28;20196;-74
2023/10/07 14:00:51;;;;;;;6.03;5.43;;;;;;;;;;5070631;28;20297;-73
2023/10/07 14:03:22;;;;;;;7.73;5.70;;;;;;;;;;5070008;28;20197;-73
2023/10/07 14:05:50;;;;;;;8.97;5.20;;;;;;;;;;5070654;28;20212;-73
2023/10/07 14:08:19;;;;;;;9.37;6.00;;;;;;;;;;5069955;28;20204;-73
2023/10/07 14:10:48;;;;;;;7.30;4.90;;;;;;;;;;5070503;28;20271;-73
2023/10/07 14:13:15;;;;;;;9.07;5.93;;;;;;;;;;5070083;28;20232;-73
2023/10/07 14:15:48;;;;;;;7.63;5.17;;;;;;;;;;5069703;28;20205;-73
2023/10/07 14:18:19;;;;;;;9.47;5.37;;;;;;;;;;5069918;28;20201;-73
2023/10/07 14:20:53;;;;;;;7.50;5.50;;;;;;;;;;5069724;28;20800;-73
2023/10/07 14:23:20;;;;;;;6.50;5.47;;;;;;;;;;5044832;28;20201;-73
2023/10/07 14:25:49;;;;;;;6.70;5.23;;;;;;;;;;5056782;28;20213;-74
2023/10/07 14:28:16;;;;;;;9.40;5.33;;;;;;;;;;5073990;28;20205;-73
2023/10/07 14:30:44;;;;;;;6.53;5.43;;;;;;;;;;5073463;28;20685;-73
2023/10/07 14:33:12;;;;;;;6.97;5.30;;;;;;;;;;5065098;28;20263;-73
2023/10/07 14:35:40;;;;;;;7.90;4.97;;;;;;;;;;5070262;28;20258;-73
2023/10/07 14:38:09;;;;;;;9.27;5.57;;;;;;;;;;5073647;28;20201;-73
2023/10/07 14:40:37;;;;;;;7.23;5.40;;;;;;;;;;5073398;28;20671;-73
2023/10/07 14:43:05;;;;;;;5.90;5.37;;;;;;;;;;5072836;28;20197;-73
2023/10/07 14:45:33;;;;;;;11.53;5.10;;;;;;;;;;5073369;28;20229;-73
2023/10/07 14:48:00;;;;;;;10.10;5.70;;;;;;;;;;5073279;28;20213;-73
2023/10/07 14:50:28;;;;;;;10.20;5.33;;;;;;;;;;5073465;28;20259;-73
2023/10/07 14:52:54;;;;;;;11.50;7.13;;;;;;;;;;5073074;28;20201;-73
2023/10/07 14:55:23;;;;;;;10.93;5.80;;;;;;;;;;5073135;28;20200;-73
2023/10/07 14:57:50;;;;;;;7.97;5.70;;;;;;;;;;5073646;28;20282;-73
2023/10/07 15:00:17;;;;;;;13.53;5.40;;;;;;;;;;5073270;28;20617;-73
2023/10/07 15:02:46;;;;;;;9.77;6.07;;;;;;;;;;5072755;28;20295;-73
2023/10/07 15:05:12;;;;;;;10.37;6.90;;;;;;;;;;5073504;28;20205;-73
2023/10/07 15:07:40;;;;;;;10.70;6.70;;;;;;;;;;5073390;28;20208;-73